createdAt,value
2019-02-09T00:02:09.022Z,75.57
2019-02-09T00:04:39.505Z,74.94
2019-02-09T00:07:09.955Z,75.27
2019-02-09T00:09:40.462Z,75.03
2019-02-09T00:12:10.940Z,74.95
2019-02-09T00:14:41.406Z,74.91
2019-02-09T00:17:11.899Z,74.91
2019-02-09T00:19:42.380Z,75.03
2019-02-09T00:22:12.842Z,76.17
2019-02-09T00:24:43.372Z,77.04
2019-02-09T00:27:13.857Z,77.51
2019-02-09T00:29:46.264Z,78.16
2019-02-09T00:32:16.520Z,79.02
2019-02-09T00:34:46.987Z,79.34
2019-02-09T00:37:17.455Z,80.03
2019-02-09T00:39:47.949Z,80.47
2019-02-09T00:42:18.457Z,79.91
2019-02-09T00:44:48.904Z,80.36
2019-02-09T00:47:19.389Z,81.14
2019-02-09T00:49:49.863Z,81.78
2019-02-09T00:52:20.326Z,81.96
2019-02-09T00:54:50.887Z,82.36
2019-02-09T00:57:21.363Z,83.82
2019-02-09T00:59:54.183Z,83.62
2019-02-09T01:02:24.022Z,83.85
2019-02-09T01:04:54.466Z,84.69
2019-02-09T01:07:25.045Z,84.82
2019-02-09T01:09:55.552Z,84.84
2019-02-09T01:12:26.024Z,84.92
2019-02-09T01:14:56.528Z,84.98
2019-02-09T01:17:26.993Z,85.60
2019-02-09T01:19:57.464Z,85.69
2019-02-09T01:22:27.927Z,85.59
2019-02-09T01:24:58.389Z,85.84
2019-02-09T01:27:28.882Z,85.50
2019-02-09T01:30:02.421Z,85.74
2019-02-09T01:32:31.555Z,85.51
2019-02-09T01:35:01.999Z,85.66
2019-02-09T01:37:32.479Z,85.98
2019-02-09T01:40:02.967Z,86.03
2019-02-09T01:42:33.431Z,86.66
2019-02-09T01:45:04.835Z,86.50
2019-02-09T01:47:35.321Z,86.30
2019-02-09T01:50:09.004Z,86.55
2019-02-09T01:52:39.467Z,86.93
2019-02-09T01:55:11.112Z,86.87
2019-02-09T01:57:41.600Z,87.38
2019-02-09T02:00:19.011Z,86.80
2019-02-09T02:02:49.981Z,87.64
2019-02-09T02:05:22.064Z,87.24
2019-02-09T02:07:52.932Z,87.08
2019-02-09T02:10:42.545Z,87.49
2019-02-09T02:13:13.223Z,87.41
2019-02-09T02:15:43.933Z,87.08
2019-02-09T02:18:14.509Z,87.03
2019-02-09T02:20:45.019Z,86.64
2019-02-09T02:23:15.501Z,87.20
2019-02-09T02:25:45.982Z,87.79
2019-02-09T02:28:16.468Z,88.10
2019-02-09T02:30:46.919Z,87.85
2019-02-09T02:33:17.395Z,88.18
2019-02-09T02:35:47.887Z,88.04
2019-02-09T02:38:18.355Z,88.18
2019-02-09T02:40:48.831Z,87.79
2019-02-09T02:43:19.306Z,87.74
2019-02-09T02:45:49.807Z,87.62
2019-02-09T02:48:20.287Z,87.89
2019-02-09T02:50:50.794Z,87.61
2019-02-09T02:53:21.263Z,87.19
2019-02-09T02:55:51.741Z,87.74
2019-02-09T02:58:22.253Z,87.34
2019-02-09T03:00:52.744Z,87.52
2019-02-09T03:03:23.238Z,87.43
2019-02-09T03:05:53.734Z,86.94
2019-02-09T03:08:24.206Z,86.76
2019-02-09T03:10:54.693Z,86.96
2019-02-09T03:13:25.162Z,86.35
2019-02-09T03:15:55.714Z,86.46
2019-02-09T03:18:26.183Z,86.46
2019-02-09T03:20:56.709Z,85.66
2019-02-09T03:23:27.161Z,85.51
2019-02-09T03:25:57.627Z,85.58
2019-02-09T03:28:28.116Z,85.80
2019-02-09T03:30:58.578Z,85.78
2019-02-09T03:33:29.100Z,85.57
2019-02-09T03:35:59.633Z,85.34
2019-02-09T03:38:30.081Z,85.55
2019-02-09T03:41:00.537Z,85.42
2019-02-09T03:43:31.030Z,85.46
2019-02-09T03:46:01.511Z,85.50
2019-02-09T03:48:31.973Z,85.70
2019-02-09T03:51:02.494Z,85.67
2019-02-09T03:53:32.990Z,85.95
2019-02-09T03:56:03.453Z,86.12
2019-02-09T03:58:34.071Z,86.12
2019-02-09T04:01:04.960Z,86.43
2019-02-09T04:03:35.628Z,86.29
2019-02-09T04:06:06.117Z,86.06
2019-02-09T04:08:36.576Z,86.09
2019-02-09T04:11:07.048Z,86.18
2019-02-09T04:13:37.554Z,86.06
2019-02-09T04:16:08.055Z,86.09
2019-02-09T04:18:38.466Z,85.95
2019-02-09T04:21:08.982Z,85.70
2019-02-09T04:23:39.434Z,85.71
2019-02-09T04:26:09.893Z,85.78
2019-02-09T04:28:40.376Z,86.07
2019-02-09T04:31:10.834Z,86.26
2019-02-09T04:33:41.299Z,85.52
2019-02-09T04:36:11.781Z,85.34
2019-02-09T04:38:42.251Z,85.53
2019-02-09T04:41:12.700Z,85.75
2019-02-09T04:43:43.293Z,85.12
2019-02-09T04:46:13.783Z,85.27
2019-02-09T04:48:44.230Z,85.52
2019-02-09T04:51:14.774Z,85.43
2019-02-09T04:53:45.177Z,85.56
2019-02-09T04:56:15.727Z,85.78
2019-02-09T04:58:46.182Z,85.09
2019-02-09T05:01:16.638Z,85.20
2019-02-09T05:03:47.135Z,85.43
2019-02-09T05:06:17.576Z,85.31
2019-02-09T05:08:48.084Z,85.09
2019-02-09T05:11:18.568Z,84.89
2019-02-09T05:13:49.017Z,84.87
2019-02-09T05:16:19.463Z,84.96
2019-02-09T05:18:49.941Z,85.38
2019-02-09T05:21:20.421Z,85.34
2019-02-09T05:23:50.864Z,85.49
2019-02-09T05:26:21.344Z,85.68
2019-02-09T05:28:51.800Z,85.93
2019-02-09T05:31:23.451Z,85.84
2019-02-09T05:33:54.198Z,85.79
2019-02-09T05:36:24.650Z,85.81
2019-02-09T05:38:55.097Z,86.11
2019-02-09T05:41:25.587Z,85.93
2019-02-09T05:43:56.185Z,85.54
2019-02-09T05:46:26.692Z,85.50
2019-02-09T05:48:57.338Z,85.56
2019-02-09T05:51:30.291Z,85.46
2019-02-09T05:53:59.987Z,85.09
2019-02-09T05:56:30.515Z,85.05
2019-02-09T05:59:00.979Z,85.15
2019-02-09T06:01:32.549Z,84.47
2019-02-09T06:04:03.246Z,84.86
2019-02-09T06:06:33.687Z,84.93
2019-02-09T06:09:05.704Z,85.10
2019-02-09T06:11:36.185Z,85.31
2019-02-09T06:14:06.970Z,85.15
2019-02-09T06:16:37.398Z,85.66
2019-02-09T06:19:07.948Z,86.43
2019-02-09T06:21:38.404Z,88.39
2019-02-09T06:24:08.855Z,89.76
2019-02-09T06:26:39.364Z,90.06
2019-02-09T06:29:09.807Z,91.02
2019-02-09T06:31:41.266Z,91.44
2019-02-09T06:34:11.930Z,91.89
2019-02-09T06:36:42.404Z,92.03
2019-02-09T06:39:12.867Z,91.61
2019-02-09T06:41:43.344Z,91.30
2019-02-09T06:44:14.186Z,91.39
2019-02-09T06:46:44.650Z,91.50
2019-02-09T06:49:15.125Z,91.65
2019-02-09T06:51:45.576Z,90.68
2019-02-09T06:54:16.187Z,90.27
2019-02-09T06:56:46.606Z,90.11
2019-02-09T06:59:17.070Z,88.81
2019-02-09T07:01:48.810Z,86.75
2019-02-09T07:04:19.957Z,86.56
2019-02-09T07:06:50.421Z,85.98
2019-02-09T07:09:20.911Z,86.16
2019-02-09T07:11:51.595Z,85.73
2019-02-09T07:14:22.040Z,85.74
2019-02-09T07:16:52.495Z,85.96
2019-02-09T07:19:22.978Z,85.53
2019-02-09T07:21:53.432Z,85.83
2019-02-09T07:24:23.887Z,85.60
2019-02-09T07:26:54.344Z,85.31
2019-02-09T07:29:24.797Z,85.52
2019-02-09T07:31:56.664Z,86.09
2019-02-09T07:34:27.643Z,86.02
2019-02-09T07:36:58.222Z,85.81
2019-02-09T07:39:28.704Z,85.73
2019-02-09T07:41:59.314Z,86.01
2019-02-09T07:44:29.880Z,85.51
2019-02-09T07:47:00.382Z,85.59
2019-02-09T07:49:30.815Z,85.87
2019-02-09T07:52:01.305Z,85.98
2019-02-09T07:54:31.776Z,85.84
2019-02-09T07:57:02.221Z,85.38
2019-02-09T07:59:32.772Z,85.18
2019-02-09T08:02:04.727Z,85.58
2019-02-09T08:04:35.524Z,84.95
2019-02-09T08:07:06.095Z,85.01
2019-02-09T08:09:36.651Z,84.48
2019-02-09T08:12:07.802Z,84.54
2019-02-09T08:14:38.264Z,84.05
2019-02-09T08:17:08.860Z,84.17
2019-02-09T08:19:39.365Z,84.00
2019-02-09T08:22:09.862Z,83.96
2019-02-09T08:24:40.326Z,83.84
2019-02-09T08:27:10.891Z,83.67
2019-02-09T08:29:41.365Z,83.43
2019-02-09T08:32:13.031Z,83.74
2019-02-09T08:34:43.694Z,83.92
2019-02-09T08:37:14.158Z,83.82
2019-02-09T08:39:44.645Z,83.28
2019-02-09T08:42:15.115Z,82.88
2019-02-09T08:44:45.694Z,81.81
2019-02-09T08:47:16.126Z,80.65
2019-02-09T08:49:46.668Z,79.72
2019-02-09T08:52:17.130Z,79.91
2019-02-09T08:54:47.593Z,79.90
2019-02-09T08:57:18.106Z,79.08
2019-02-09T08:59:48.582Z,78.63
2019-02-09T09:02:20.701Z,78.76
2019-02-09T09:04:51.434Z,78.75
2019-02-09T09:07:21.895Z,79.33
2019-02-09T09:09:52.421Z,79.56
2019-02-09T09:12:22.910Z,79.28
2019-02-09T09:14:53.377Z,78.64
2019-02-09T09:17:23.828Z,79.39
2019-02-09T09:19:54.309Z,79.16
2019-02-09T09:22:26.585Z,78.45
2019-02-09T09:24:57.097Z,79.23
2019-02-09T09:27:27.639Z,78.99
2019-02-09T09:29:58.095Z,77.32
2019-02-09T09:32:28.998Z,76.87
2019-02-09T09:34:59.486Z,76.58
2019-02-09T09:37:29.992Z,75.55
2019-02-09T09:40:00.509Z,75.18
2019-02-09T09:42:31.027Z,75.58
2019-02-09T09:45:01.483Z,75.22
2019-02-09T09:47:31.943Z,75.24
2019-02-09T09:50:02.558Z,75.65
2019-02-09T10:12:26.255Z,71.09
2019-02-09T10:14:56.990Z,69.87
2019-02-09T10:17:27.525Z,68.94
2019-02-09T10:19:58.251Z,68.62
2019-02-09T10:22:28.751Z,68.51
2019-02-09T10:24:59.299Z,66.89
2019-02-09T10:27:29.842Z,66.56
2019-02-09T10:30:00.414Z,66.28
2019-02-09T10:32:30.848Z,65.74
2019-02-09T10:35:01.458Z,65.15
2019-02-09T10:37:32.105Z,65.14
2019-02-09T10:40:02.760Z,63.95
2019-02-09T10:42:33.493Z,63.85
2019-02-09T10:45:04.191Z,63.61
2019-02-09T10:47:34.760Z,63.73
2019-02-09T10:50:07.159Z,62.26
2019-02-09T10:52:37.799Z,62.98
2019-02-09T10:55:09.871Z,63.01
2019-02-09T10:57:41.666Z,62.93
2019-02-09T11:00:20.622Z,62.91
2019-02-09T11:02:52.310Z,63.02
2019-02-09T11:05:22.987Z,63.00
2019-02-09T11:07:53.686Z,63.63
2019-02-09T11:10:25.423Z,64.64
2019-02-09T11:12:56.138Z,63.87
2019-02-09T11:15:26.740Z,64.21
2019-02-09T11:17:57.381Z,65.04
2019-02-09T11:20:27.983Z,64.74
2019-02-09T11:22:58.484Z,65.03
2019-02-09T11:25:30.184Z,64.33
2019-02-09T11:28:00.706Z,64.70
2019-02-09T11:30:31.961Z,63.50
2019-02-09T11:33:02.737Z,62.71
2019-02-09T11:35:33.312Z,62.65
2019-02-09T11:38:04.887Z,61.89
2019-02-09T11:40:35.476Z,62.31
2019-02-09T11:43:07.358Z,62.10
2019-02-09T11:45:38.750Z,61.71
2019-02-09T11:48:09.447Z,61.33
2019-02-09T11:50:40.042Z,61.57
2019-02-09T11:53:10.631Z,60.66
2019-02-09T11:55:41.244Z,61.04
2019-02-09T11:58:11.819Z,60.54
2019-02-09T12:00:49.756Z,60.14
2019-02-09T12:03:20.268Z,60.55
2019-02-09T12:05:50.854Z,60.45
2019-02-09T12:08:21.542Z,60.15
2019-02-09T12:10:52.095Z,60.17
2019-02-09T12:13:22.659Z,59.88
2019-02-09T12:15:53.234Z,58.94
2019-02-09T12:18:23.803Z,60.20
2019-02-09T12:20:54.329Z,59.54
2019-02-09T12:23:24.886Z,59.74
2019-02-09T12:25:55.373Z,59.69
2019-02-09T12:28:25.924Z,59.90
2019-02-09T12:30:56.489Z,59.68
2019-02-09T12:33:26.986Z,60.02
2019-02-09T12:35:57.489Z,60.32
2019-02-09T12:38:28.076Z,60.45
2019-02-09T12:40:58.634Z,60.22
2019-02-09T12:43:29.138Z,60.67
2019-02-09T12:45:59.696Z,60.48
2019-02-09T12:48:30.234Z,59.91
2019-02-09T12:51:00.772Z,60.28
2019-02-09T12:53:31.380Z,60.21
2019-02-09T12:56:01.884Z,59.95
2019-02-09T12:58:32.454Z,60.55
2019-02-09T13:01:02.975Z,60.00
2019-02-09T13:03:33.534Z,60.60
2019-02-09T13:06:04.059Z,59.71
2019-02-09T13:08:34.644Z,59.18
2019-02-09T13:11:05.228Z,59.37
2019-02-09T13:13:35.757Z,59.47
2019-02-09T13:16:06.888Z,59.19
2019-02-09T13:18:37.458Z,59.68
2019-02-09T13:21:08.164Z,59.88
2019-02-09T13:23:38.757Z,59.95
2019-02-09T13:26:09.313Z,59.37
2019-02-09T13:28:39.837Z,59.54
2019-02-09T13:31:10.381Z,59.16
2019-02-09T13:33:40.922Z,58.58
2019-02-09T13:36:11.490Z,58.41
2019-02-09T13:38:42.027Z,58.73
2019-02-09T13:41:12.526Z,58.16
2019-02-09T13:43:43.055Z,58.14
2019-02-09T13:46:13.651Z,58.55
2019-02-09T13:48:44.135Z,58.86
2019-02-09T13:51:14.669Z,58.86
2019-02-09T13:53:45.202Z,58.64
2019-02-09T13:56:15.710Z,58.65
2019-02-09T13:58:46.257Z,58.70
2019-02-09T14:01:16.754Z,58.80
2019-02-09T14:03:47.384Z,59.09
2019-02-09T14:06:17.931Z,58.72
2019-02-09T14:08:48.563Z,58.21
2019-02-09T14:11:19.088Z,57.84
2019-02-09T14:13:49.588Z,58.49
2019-02-09T14:16:20.101Z,57.85
2019-02-09T14:18:50.627Z,58.78
2019-02-09T14:21:21.134Z,66.07
2019-02-09T14:23:51.707Z,73.82
2019-02-09T14:26:22.309Z,74.98
2019-02-09T14:28:52.820Z,77.13
2019-02-09T14:31:23.286Z,77.89
2019-02-09T14:33:55.358Z,78.29
2019-02-09T14:36:26.057Z,77.06
2019-02-09T14:38:56.602Z,80.62
2019-02-09T14:41:27.188Z,80.94
2019-02-09T14:43:57.687Z,82.24
2019-02-09T14:46:28.324Z,84.83
2019-02-09T14:48:58.830Z,86.66
2019-02-09T14:51:29.342Z,88.78
2019-02-09T14:53:59.933Z,88.83
2019-02-09T14:56:30.546Z,90.16
2019-02-09T14:59:01.040Z,90.80
2019-02-09T15:01:31.640Z,91.16
2019-02-09T15:04:03.024Z,91.17
2019-02-09T15:06:33.895Z,91.48
2019-02-09T15:09:06.044Z,91.51
2019-02-09T15:11:36.569Z,91.61
2019-02-09T15:14:07.736Z,90.56
2019-02-09T15:16:55.025Z,90.06
2019-02-09T15:19:32.611Z,89.68
2019-02-09T15:22:03.129Z,90.40
2019-02-09T15:24:33.664Z,90.05
2019-02-09T15:27:04.168Z,90.79
2019-02-09T15:29:34.761Z,89.15
2019-02-09T15:32:05.569Z,90.70
2019-02-09T15:34:36.110Z,90.63
2019-02-09T15:37:06.810Z,90.07
2019-02-09T15:39:37.317Z,90.02
2019-02-09T15:42:07.939Z,90.31
2019-02-09T15:44:38.488Z,90.62
2019-02-09T15:47:09.002Z,89.50
2019-02-09T15:49:39.840Z,88.70
2019-02-09T15:52:10.355Z,89.16
2019-02-09T15:54:40.884Z,89.49
2019-02-09T15:57:11.419Z,89.34
2019-02-09T15:59:42.004Z,88.86
2019-02-09T16:02:12.577Z,89.30
2019-02-09T16:04:43.062Z,88.83
2019-02-09T16:07:13.637Z,89.82
2019-02-09T16:09:44.208Z,88.04
2019-02-09T16:12:14.758Z,88.10
2019-02-09T16:14:45.365Z,87.53
2019-02-09T16:17:15.835Z,88.29
2019-02-09T16:19:46.371Z,87.68
2019-02-09T16:22:16.934Z,87.14
2019-02-09T16:24:47.437Z,85.69
2019-02-09T16:27:18.141Z,84.84
2019-02-09T16:29:48.703Z,84.62
2019-02-09T16:32:19.266Z,83.11
2019-02-09T16:34:51.303Z,82.73
2019-02-09T16:37:22.108Z,82.90
2019-02-09T16:39:52.780Z,81.13
2019-02-09T16:42:23.393Z,81.57
2019-02-09T16:44:53.916Z,81.06
2019-02-09T16:47:24.481Z,80.95
2019-02-09T16:49:54.978Z,81.04
2019-02-09T16:52:25.861Z,81.13
2019-02-09T16:54:56.485Z,81.11
2019-02-09T16:57:26.999Z,81.10
2019-02-09T16:59:57.534Z,80.41
2019-02-09T17:02:28.148Z,81.09
2019-02-09T17:04:59.779Z,81.00
2019-02-09T17:07:30.469Z,81.37
2019-02-09T17:10:01.024Z,82.27
2019-02-09T17:12:31.511Z,82.93
2019-02-09T17:15:02.052Z,83.79
2019-02-09T17:17:32.574Z,85.80
2019-02-09T17:20:03.089Z,85.96
2019-02-09T17:22:33.690Z,86.73
2019-02-09T17:25:04.605Z,87.60
2019-02-09T17:27:35.139Z,88.40
2019-02-09T17:30:15.861Z,88.50
2019-02-09T17:32:46.435Z,88.58
2019-02-09T17:35:16.979Z,88.83
2019-02-09T17:37:47.650Z,89.00
2019-02-09T17:40:21.452Z,89.01
2019-02-09T17:42:53.403Z,89.83
2019-02-09T17:45:28.222Z,89.95
2019-02-09T17:47:58.749Z,89.61
2019-02-09T17:50:29.384Z,90.42
2019-02-09T17:53:00.317Z,91.26
2019-02-09T17:55:30.996Z,92.62
2019-02-09T17:58:01.646Z,92.76
2019-02-09T18:00:54.318Z,93.41
2019-02-09T18:03:24.800Z,93.54
2019-02-09T18:05:55.341Z,93.52
2019-02-09T18:08:25.881Z,94.15
2019-02-09T18:10:56.466Z,94.38
2019-02-09T18:13:26.992Z,93.96
2019-02-09T18:15:57.672Z,93.42
2019-02-09T18:18:28.213Z,93.64
2019-02-09T18:20:58.751Z,92.47
2019-02-09T18:23:29.336Z,92.32
2019-02-09T18:26:00.117Z,91.45
2019-02-09T18:28:30.679Z,91.09
2019-02-09T18:31:01.240Z,90.17
2019-02-09T18:33:31.735Z,89.58
2019-02-09T18:36:02.248Z,89.15
2019-02-09T18:38:32.862Z,88.85
2019-02-09T18:41:03.335Z,88.07
2019-02-09T18:43:33.867Z,88.53
2019-02-09T18:46:04.715Z,88.07
2019-02-09T18:48:36.282Z,88.89
2019-02-09T18:51:06.874Z,87.86
2019-02-09T18:53:37.472Z,86.70
2019-02-09T18:56:07.962Z,85.29
2019-02-09T18:58:38.528Z,85.57
2019-02-09T19:01:09.240Z,83.98
2019-02-09T19:03:39.805Z,84.72
2019-02-09T19:06:10.416Z,84.33
2019-02-09T19:08:40.983Z,83.14
2019-02-09T19:11:11.475Z,80.36
2019-02-09T19:13:41.998Z,83.11
2019-02-09T19:16:12.534Z,83.80
2019-02-09T19:18:43.079Z,81.65
2019-02-09T19:21:16.819Z,80.95
2019-02-09T19:23:47.358Z,81.54
2019-02-09T19:26:17.918Z,81.34
2019-02-09T19:28:48.488Z,80.43
2019-02-09T19:31:19.104Z,79.42
2019-02-09T19:33:49.998Z,79.14
2019-02-09T19:36:20.591Z,80.13
2019-02-09T19:38:51.061Z,78.27
2019-02-09T19:41:21.619Z,79.32
2019-02-09T19:43:52.230Z,78.28
2019-02-09T19:46:25.619Z,77.39
2019-02-09T19:48:56.143Z,76.69
2019-02-09T19:51:26.700Z,76.74
2019-02-09T19:53:57.268Z,76.43
2019-02-09T19:56:27.833Z,75.24
2019-02-09T19:58:58.573Z,75.24
2019-02-09T20:01:29.006Z,74.27
2019-02-09T20:03:59.511Z,74.00
2019-02-09T20:06:30.021Z,74.68
2019-02-09T20:09:00.526Z,74.59
2019-02-09T20:11:31.057Z,73.99
2019-02-09T20:14:01.584Z,74.95
2019-02-09T20:16:32.123Z,73.84
2019-02-09T20:19:02.673Z,73.41
2019-02-09T20:21:33.192Z,72.83
2019-02-09T20:24:03.720Z,73.07
2019-02-09T20:26:34.302Z,72.97
2019-02-09T20:29:05.005Z,72.91
2019-02-09T20:31:35.551Z,73.00
2019-02-09T20:34:06.156Z,72.45
2019-02-09T20:36:37.619Z,72.54
2019-02-09T20:39:10.315Z,72.79
2019-02-09T20:41:41.100Z,72.21
2019-02-09T20:44:11.695Z,72.47
2019-02-09T20:46:42.164Z,72.30
2019-02-09T20:49:12.711Z,72.08
2019-02-09T20:51:43.340Z,73.06
2019-02-09T20:54:13.908Z,72.49
2019-02-09T20:56:44.389Z,71.79
2019-02-09T20:59:14.966Z,72.13
2019-02-09T21:01:45.439Z,72.39
2019-02-09T21:04:15.978Z,71.82
2019-02-09T21:06:46.544Z,71.92
2019-02-09T21:09:17.007Z,72.13
2019-02-09T21:11:47.523Z,72.21
2019-02-09T21:14:18.030Z,72.16
2019-02-09T21:16:51.707Z,71.75
2019-02-09T21:19:21.010Z,72.19
2019-02-09T21:21:51.605Z,71.84
2019-02-09T21:24:22.165Z,71.80
2019-02-09T21:26:52.835Z,71.24
2019-02-09T21:29:23.422Z,71.73
2019-02-09T21:31:53.869Z,71.68
2019-02-09T21:34:24.453Z,71.43
2019-02-09T21:36:55.340Z,71.99
2019-02-09T21:39:33.495Z,71.37
2019-02-09T21:41:59.063Z,71.76
2019-02-09T21:44:29.679Z,71.82
2019-02-09T21:47:00.248Z,71.51
2019-02-09T21:49:30.848Z,71.99
2019-02-09T21:52:01.364Z,72.01
2019-02-09T22:05:08.719Z,72.21
2019-02-09T22:07:39.260Z,72.46
2019-02-09T22:10:12.570Z,72.14
2019-02-09T22:12:44.086Z,72.57
2019-02-09T22:15:14.990Z,72.75
2019-02-09T22:17:45.564Z,73.08
2019-02-09T22:20:17.575Z,73.13
2019-02-09T22:22:48.768Z,72.94
2019-02-09T22:25:21.684Z,73.45
2019-02-09T22:27:55.269Z,73.30
2019-02-09T22:30:28.254Z,73.62
2019-02-09T22:32:59.716Z,73.79
2019-02-09T22:35:30.973Z,74.14
2019-02-09T22:38:01.612Z,74.38
2019-02-09T22:40:34.372Z,74.63
2019-02-09T22:43:06.147Z,74.56
2019-02-09T22:45:37.022Z,74.76
2019-02-09T22:48:09.660Z,75.47
2019-02-09T22:50:43.876Z,75.10
2019-02-09T22:53:14.531Z,75.06
2019-02-09T22:55:45.645Z,75.24
2019-02-09T22:58:16.200Z,75.62
2019-02-09T23:01:37.050Z,75.95
2019-02-09T23:05:00.552Z,75.92
2019-02-09T23:07:34.156Z,75.72
2019-02-09T23:10:10.593Z,75.71
2019-02-09T23:12:48.312Z,75.47
2019-02-09T23:15:13.377Z,75.58
2019-02-09T23:17:43.944Z,75.90
2019-02-09T23:20:14.536Z,75.85
2019-02-09T23:22:45.025Z,76.26
2019-02-09T23:25:15.561Z,76.64
2019-02-09T23:27:46.081Z,76.82
2019-02-09T23:30:16.647Z,76.89
2019-02-09T23:32:47.110Z,77.03
2019-02-09T23:35:17.656Z,76.99
2019-02-09T23:37:48.187Z,77.15
2019-02-09T23:40:18.821Z,77.51
2019-02-09T23:42:49.320Z,77.61
2019-02-09T23:45:19.920Z,77.21
2019-02-09T23:47:50.437Z,77.16
2019-02-09T23:50:21.005Z,77.03
2019-02-09T23:52:51.528Z,76.94
2019-02-09T23:55:22.115Z,77.16
2019-02-09T23:57:52.683Z,77.12
